createdAt,value
2019-03-22T00:01:21.414Z,3.60
2019-03-22T00:03:51.458Z,3.00
2019-03-22T00:06:20.771Z,2.90
2019-03-22T00:08:50.088Z,4.00
2019-03-22T00:11:19.474Z,3.63
2019-03-22T00:13:49.064Z,4.50
2019-03-22T00:16:18.527Z,4.23
2019-03-22T00:18:47.847Z,4.33
2019-03-22T00:21:17.164Z,5.23
2019-03-22T00:23:46.492Z,2.97
2019-03-22T00:26:15.804Z,4.50
2019-03-22T00:28:45.138Z,3.40
2019-03-22T00:31:14.477Z,4.03
2019-03-22T00:33:43.814Z,4.93
2019-03-22T00:36:13.132Z,5.03
2019-03-22T00:38:42.803Z,4.97
2019-03-22T00:41:12.472Z,4.30
2019-03-22T00:43:41.862Z,4.67
2019-03-22T00:46:11.918Z,3.63
2019-03-22T00:48:41.246Z,6.50
2019-03-22T00:51:10.553Z,4.30
2019-03-22T00:53:39.885Z,4.90
2019-03-22T00:56:09.195Z,4.70
2019-03-22T00:58:38.538Z,5.40
2019-03-22T01:01:08.230Z,4.17
2019-03-22T01:03:37.528Z,5.13
2019-03-22T01:06:07.131Z,4.90
2019-03-22T01:08:36.528Z,5.07
2019-03-22T01:11:05.981Z,6.40
2019-03-22T01:13:35.304Z,4.70
2019-03-22T01:16:04.716Z,3.80
2019-03-22T01:18:34.430Z,5.13
2019-03-22T01:21:04.073Z,4.70
2019-03-22T01:23:33.487Z,4.50
2019-03-22T01:26:02.897Z,5.60
2019-03-22T01:28:32.234Z,6.13
2019-03-22T01:31:01.561Z,4.23
2019-03-22T01:33:31.141Z,6.00
2019-03-22T01:36:00.792Z,4.30
2019-03-22T01:38:30.126Z,4.80
2019-03-22T01:40:59.592Z,6.00
2019-03-22T01:43:28.916Z,4.80
2019-03-22T01:45:58.616Z,5.63
2019-03-22T01:48:27.945Z,5.03
2019-03-22T01:50:57.413Z,4.43
2019-03-22T01:53:26.723Z,4.47
2019-03-22T01:56:15.250Z,5.03
2019-03-22T01:58:44.903Z,4.33
2019-03-22T02:01:14.301Z,4.93
2019-03-22T02:03:43.588Z,5.50
2019-03-22T02:06:12.980Z,4.30
2019-03-22T02:08:42.301Z,4.57
2019-03-22T02:18:09.893Z,4.10
2019-03-22T02:20:39.286Z,4.50
2019-03-22T02:23:08.896Z,4.50
2019-03-22T02:25:38.224Z,5.63
2019-03-22T02:28:07.547Z,4.70
2019-03-22T02:30:36.956Z,4.80
2019-03-22T02:33:06.293Z,4.67
2019-03-22T02:35:35.619Z,5.10
2019-03-22T02:38:05.034Z,5.63
2019-03-22T02:40:34.437Z,5.70
2019-03-22T02:43:03.774Z,5.00
2019-03-22T02:45:33.127Z,4.83
2019-03-22T02:48:02.479Z,5.60
2019-03-22T02:50:31.806Z,3.93
2019-03-22T02:53:01.482Z,3.43
2019-03-22T02:55:31.141Z,5.13
2019-03-22T02:58:00.728Z,4.90
2019-03-22T03:00:30.546Z,5.33
2019-03-22T03:02:59.969Z,5.43
2019-03-22T03:05:29.344Z,4.77
2019-03-22T03:07:58.707Z,4.20
2019-03-22T03:10:28.360Z,4.97
2019-03-22T03:12:58.117Z,4.90
2019-03-22T03:15:27.520Z,4.47
2019-03-22T03:17:56.868Z,4.00
2019-03-22T03:20:26.243Z,4.97
2019-03-22T03:22:55.863Z,5.57
2019-03-22T03:25:25.272Z,5.60
2019-03-22T03:27:54.673Z,4.27
2019-03-22T03:30:24.540Z,4.37
2019-03-22T03:32:53.958Z,6.03
2019-03-22T03:35:23.289Z,7.00
2019-03-22T03:37:52.746Z,4.40
2019-03-22T03:40:22.132Z,5.20
2019-03-22T03:42:51.492Z,5.03
2019-03-22T03:45:32.706Z,3.97
2019-03-22T03:48:02.809Z,4.00
2019-03-22T03:50:32.310Z,5.00
2019-03-22T03:53:01.734Z,5.07
2019-03-22T03:55:31.398Z,4.87
2019-03-22T03:58:00.812Z,3.87
2019-03-22T04:00:30.174Z,5.17
2019-03-22T04:02:59.700Z,4.33
2019-03-22T04:05:29.178Z,4.07
2019-03-22T04:07:58.869Z,4.30
2019-03-22T04:10:28.703Z,5.37
2019-03-22T04:12:58.637Z,3.80
2019-03-22T04:15:27.966Z,3.93
2019-03-22T04:17:57.568Z,5.10
2019-03-22T04:20:27.321Z,4.17
2019-03-22T04:22:56.942Z,5.93
2019-03-22T04:25:26.278Z,5.20
2019-03-22T04:27:55.709Z,7.53
2019-03-22T04:30:25.061Z,4.50
2019-03-22T04:32:54.421Z,5.23
2019-03-22T04:35:24.203Z,3.97
2019-03-22T04:37:53.660Z,4.60
2019-03-22T04:40:25.035Z,4.50
2019-03-22T04:42:54.662Z,5.70
2019-03-22T04:45:25.657Z,4.23
2019-03-22T04:48:00.258Z,4.80
2019-03-22T04:50:31.042Z,3.57
2019-03-22T04:53:01.173Z,3.83
2019-03-22T04:55:33.107Z,3.70
2019-03-22T04:58:04.027Z,3.57
2019-03-22T05:00:34.947Z,3.40
2019-03-22T05:03:05.885Z,4.20
2019-03-22T05:05:35.668Z,4.40
2019-03-22T05:08:06.001Z,4.10
2019-03-22T05:10:37.076Z,4.17
2019-03-22T05:13:09.946Z,3.60
2019-03-22T05:15:39.933Z,4.40
2019-03-22T05:18:09.653Z,4.83
2019-03-22T05:20:40.769Z,3.97
2019-03-22T05:23:11.091Z,4.70
2019-03-22T05:25:41.265Z,3.77
2019-03-22T05:28:13.244Z,6.73
2019-03-22T05:31:25.582Z,3.90
2019-03-22T05:33:55.044Z,4.23
2019-03-22T05:36:24.541Z,5.43
2019-03-22T05:38:53.916Z,4.10
2019-03-22T05:41:23.244Z,4.27
2019-03-22T05:43:52.660Z,4.33
2019-03-22T05:46:22.423Z,4.43
2019-03-22T05:48:51.876Z,4.17
2019-03-22T05:51:21.200Z,5.33
2019-03-22T05:53:50.528Z,4.10
2019-03-22T05:56:19.852Z,5.20
2019-03-22T05:58:49.196Z,4.00
2019-03-22T06:01:18.517Z,3.87
2019-03-22T06:03:47.896Z,5.67
2019-03-22T06:06:17.323Z,3.80
2019-03-22T06:08:46.734Z,6.17
2019-03-22T06:11:16.103Z,4.63
2019-03-22T06:13:45.420Z,4.00
2019-03-22T06:16:14.768Z,4.03
2019-03-22T06:18:44.377Z,4.80
2019-03-22T06:21:13.726Z,5.93
2019-03-22T06:23:43.079Z,5.50
2019-03-22T06:26:12.480Z,5.30
2019-03-22T06:28:42.128Z,5.77
2019-03-22T06:31:11.464Z,3.50
2019-03-22T06:33:40.792Z,4.37
2019-03-22T06:36:10.113Z,3.83
2019-03-22T06:38:39.956Z,3.60
2019-03-22T06:41:09.309Z,3.30
2019-03-22T06:43:38.664Z,3.77
2019-03-22T06:46:08.055Z,3.57
2019-03-22T06:48:37.815Z,4.00
2019-03-22T06:51:07.231Z,3.73
2019-03-22T06:53:37.222Z,4.27
2019-03-22T06:56:06.682Z,3.67
2019-03-22T06:58:36.077Z,3.90
2019-03-22T07:01:05.416Z,4.17
2019-03-22T07:03:35.469Z,4.30
2019-03-22T07:06:05.259Z,3.90
2019-03-22T07:08:34.590Z,4.10
2019-03-22T07:11:04.383Z,4.50
2019-03-22T07:13:33.726Z,4.37
2019-03-22T07:16:03.403Z,4.00
2019-03-22T07:18:32.932Z,3.40
2019-03-22T07:21:02.268Z,4.43
2019-03-22T07:23:31.576Z,4.50
2019-03-22T07:26:00.930Z,4.80
2019-03-22T07:28:30.253Z,4.50
2019-03-22T07:30:59.694Z,4.63
2019-03-22T07:33:29.047Z,3.90
2019-03-22T07:36:01.163Z,3.57
2019-03-22T07:38:30.492Z,4.17
2019-03-22T07:41:00.236Z,4.23
2019-03-22T07:43:30.716Z,3.57
2019-03-22T07:46:00.041Z,3.57
2019-03-22T07:48:29.729Z,3.83
2019-03-22T07:50:59.336Z,4.13
2019-03-22T07:53:28.658Z,4.07
2019-03-22T07:55:58.005Z,3.87
2019-03-22T07:58:27.325Z,4.10
2019-03-22T08:00:56.684Z,4.23
2019-03-22T08:03:26.627Z,4.83
2019-03-22T08:05:55.965Z,4.37
2019-03-22T08:08:25.652Z,6.27
2019-03-22T08:10:55.080Z,4.65
2019-03-22T08:13:24.785Z,3.80
2019-03-22T08:15:54.212Z,5.23
2019-03-22T08:18:24.195Z,4.37
2019-03-22T08:20:53.799Z,4.90
2019-03-22T08:23:23.643Z,3.90
2019-03-22T08:25:53.328Z,5.07
2019-03-22T08:28:22.737Z,4.70
2019-03-22T08:30:52.422Z,3.93
2019-03-22T08:33:21.866Z,5.13
2019-03-22T08:35:52.042Z,5.03
2019-03-22T08:38:21.369Z,3.37
2019-03-22T08:40:50.968Z,4.97
2019-03-22T08:43:20.699Z,4.80
2019-03-22T08:45:50.170Z,4.90
2019-03-22T08:48:19.595Z,4.43
2019-03-22T08:50:48.994Z,4.63
2019-03-22T08:53:18.674Z,4.77
2019-03-22T08:55:48.139Z,5.03
2019-03-22T08:58:18.738Z,6.10
2019-03-22T09:00:57.209Z,8.70
2019-03-22T09:03:19.628Z,8.10
2019-03-22T09:05:49.030Z,5.60
2019-03-22T09:08:18.792Z,5.13
2019-03-22T09:10:48.400Z,5.30
2019-03-22T09:13:17.782Z,5.33
2019-03-22T09:15:47.468Z,4.63
2019-03-22T09:18:16.804Z,5.60
2019-03-22T09:20:47.631Z,4.80
2019-03-22T09:23:17.870Z,4.83
2019-03-22T09:25:48.804Z,4.77
2019-03-22T09:28:18.186Z,4.73
2019-03-22T09:30:47.631Z,5.13
2019-03-22T09:33:17.421Z,4.70
2019-03-22T09:35:47.154Z,5.10
2019-03-22T09:38:16.580Z,5.50
2019-03-22T09:40:46.173Z,6.30
2019-03-22T09:43:15.649Z,5.47
2019-03-22T09:45:45.705Z,4.80
2019-03-22T09:48:15.173Z,6.00
2019-03-22T09:50:44.785Z,5.03
2019-03-22T09:53:14.181Z,5.40
2019-03-22T09:55:44.273Z,6.60
2019-03-22T09:58:13.937Z,7.30
2019-03-22T10:00:44.180Z,5.07
2019-03-22T10:03:14.040Z,4.87
2019-03-22T10:05:43.394Z,6.77
2019-03-22T10:08:12.824Z,5.80
2019-03-22T10:10:42.440Z,6.17
2019-03-22T10:13:12.161Z,6.00
2019-03-22T10:15:41.962Z,5.80
2019-03-22T10:18:11.736Z,5.43
2019-03-22T10:20:41.083Z,6.87
2019-03-22T10:23:10.897Z,6.27
2019-03-22T10:25:40.302Z,6.27
2019-03-22T10:28:09.772Z,11.03
2019-03-22T10:30:39.344Z,7.63
2019-03-22T10:33:21.787Z,6.40
2019-03-22T10:35:39.987Z,7.30
2019-03-22T10:38:15.912Z,6.40
2019-03-22T10:40:40.803Z,7.00
2019-03-22T10:43:10.163Z,6.40
2019-03-22T10:45:39.571Z,6.30
2019-03-22T10:48:08.953Z,7.00
2019-03-22T10:50:47.204Z,6.30
2019-03-22T10:53:16.824Z,5.77
2019-03-22T10:55:46.273Z,5.53
2019-03-22T10:58:21.269Z,6.57
2019-03-22T11:00:47.017Z,6.27
2019-03-22T11:03:16.707Z,6.00
2019-03-22T11:05:46.032Z,6.70
2019-03-22T11:08:15.374Z,6.03
2019-03-22T11:10:44.750Z,5.83
2019-03-22T11:13:14.338Z,7.17
2019-03-22T11:15:48.552Z,5.17
2019-03-22T11:18:15.514Z,5.70
2019-03-22T11:20:45.771Z,9.67
2019-03-22T11:23:15.446Z,8.10
2019-03-22T11:25:44.887Z,7.33
2019-03-22T11:28:14.484Z,6.17
2019-03-22T11:30:44.180Z,7.30
2019-03-22T11:33:13.505Z,6.73
2019-03-22T11:35:42.986Z,6.70
2019-03-22T11:38:12.352Z,6.33
2019-03-22T11:40:42.072Z,6.13
2019-03-22T11:43:11.520Z,5.77
2019-03-22T11:45:41.000Z,6.30
2019-03-22T11:48:11.289Z,6.30
2019-03-22T11:50:40.812Z,7.67
2019-03-22T11:53:10.251Z,5.90
2019-03-22T11:55:39.758Z,8.60
2019-03-22T11:58:09.175Z,6.20
2019-03-22T12:00:38.710Z,7.50
2019-03-22T12:03:08.267Z,7.70
2019-03-22T12:05:40.500Z,6.10
2019-03-22T12:08:09.223Z,6.80
2019-03-22T12:10:38.709Z,7.17
2019-03-22T12:13:08.185Z,6.67
2019-03-22T12:15:37.977Z,6.80
2019-03-22T12:18:08.033Z,7.00
2019-03-22T12:20:37.484Z,7.70
2019-03-22T12:23:07.001Z,8.10
2019-03-22T12:25:36.427Z,6.70
2019-03-22T12:28:06.245Z,7.23
2019-03-22T12:30:35.711Z,6.40
2019-03-22T12:33:06.009Z,7.53
2019-03-22T12:35:35.452Z,8.37
2019-03-22T12:38:04.966Z,7.53
2019-03-22T12:40:34.505Z,7.30
2019-03-22T12:43:04.141Z,6.40
2019-03-22T12:45:34.785Z,6.57
2019-03-22T12:48:04.437Z,7.10
2019-03-22T12:50:33.885Z,7.70
2019-03-22T12:53:03.300Z,7.97
2019-03-22T12:55:33.261Z,7.17
2019-03-22T12:58:02.684Z,6.90
2019-03-22T13:00:32.390Z,6.00
2019-03-22T13:03:01.828Z,7.90
2019-03-22T13:05:31.708Z,9.40
2019-03-22T13:08:01.169Z,7.40
2019-03-22T13:10:30.727Z,7.50
2019-03-22T13:13:00.131Z,6.30
2019-03-22T13:15:29.884Z,7.40
2019-03-22T13:17:59.513Z,6.70
2019-03-22T13:20:28.856Z,7.80
2019-03-22T13:22:58.238Z,6.67
2019-03-22T13:25:27.577Z,5.93
2019-03-22T13:27:56.897Z,6.60
2019-03-22T13:30:34.881Z,5.83
2019-03-22T13:33:04.781Z,5.93
2019-03-22T13:35:34.297Z,6.23
2019-03-22T13:38:04.274Z,5.97
2019-03-22T13:40:34.153Z,7.20
2019-03-22T13:43:03.651Z,6.67
2019-03-22T13:45:35.792Z,6.37
2019-03-22T13:48:05.601Z,7.13
2019-03-22T13:50:35.810Z,8.43
2019-03-22T13:53:05.255Z,7.40
2019-03-22T13:55:34.663Z,6.90
2019-03-22T13:58:04.197Z,8.47
2019-03-22T14:00:33.650Z,7.03
2019-03-22T14:03:03.552Z,6.70
2019-03-22T14:05:33.288Z,7.73
2019-03-22T14:08:03.707Z,7.33
2019-03-22T14:10:36.318Z,7.40
2019-03-22T14:13:06.681Z,6.87
2019-03-22T14:15:37.344Z,7.63
2019-03-22T14:18:07.383Z,6.80
2019-03-22T14:20:36.857Z,7.47
2019-03-22T14:23:06.788Z,6.63
2019-03-22T14:25:36.192Z,7.50
2019-03-22T14:28:05.653Z,7.93
2019-03-22T14:30:35.089Z,7.40
2019-03-22T14:33:12.856Z,7.47
2019-03-22T14:35:36.280Z,8.77
2019-03-22T14:38:06.459Z,7.13
2019-03-22T14:40:36.478Z,6.67
2019-03-22T14:43:05.936Z,7.13
2019-03-22T14:45:35.383Z,6.60
2019-03-22T14:48:05.319Z,7.70
2019-03-22T14:50:34.777Z,7.13
2019-03-22T14:53:04.124Z,7.13
2019-03-22T14:55:34.258Z,7.47
2019-03-22T14:58:03.798Z,6.93
2019-03-22T15:00:33.180Z,7.30
2019-03-22T15:03:04.347Z,6.73
2019-03-22T15:05:33.774Z,7.60
2019-03-22T15:08:03.240Z,6.23
2019-03-22T15:10:32.679Z,7.20
2019-03-22T15:13:02.417Z,6.43
2019-03-22T15:15:49.677Z,6.50
2019-03-22T15:18:31.867Z,6.63
2019-03-22T15:21:19.080Z,7.87
2019-03-22T15:24:06.628Z,6.63
2019-03-22T15:27:03.318Z,7.40
2019-03-22T15:30:00.593Z,7.13
2019-03-22T15:32:46.797Z,7.47
2019-03-22T15:35:44.348Z,7.60
2019-03-22T15:38:35.819Z,7.40
2019-03-22T15:41:05.424Z,7.50
2019-03-22T15:43:35.080Z,7.37
2019-03-22T15:46:04.525Z,7.87
2019-03-22T15:48:34.256Z,8.20
2019-03-22T15:51:03.672Z,7.03
2019-03-22T15:53:33.130Z,9.43
2019-03-22T15:56:02.508Z,9.03
2019-03-22T15:58:32.207Z,8.40
2019-03-22T16:01:01.633Z,8.63
2019-03-22T16:03:32.515Z,7.70
2019-03-22T16:06:01.971Z,7.90
2019-03-22T16:08:31.768Z,6.93
2019-03-22T16:11:01.384Z,7.20
2019-03-22T16:13:30.773Z,6.70
2019-03-22T16:16:00.142Z,6.90
2019-03-22T16:18:29.529Z,6.80
2019-03-22T16:21:00.191Z,6.03
2019-03-22T16:23:30.244Z,7.07
2019-03-22T16:25:59.669Z,7.55
2019-03-22T16:28:29.161Z,6.70
2019-03-22T16:30:58.937Z,9.00
2019-03-22T16:33:28.590Z,9.63
2019-03-22T16:35:58.086Z,7.00
2019-03-22T16:38:27.891Z,6.57
2019-03-22T16:40:57.797Z,7.63
2019-03-22T16:43:27.255Z,6.37
2019-03-22T16:45:56.784Z,6.40
2019-03-22T16:48:26.432Z,6.40
2019-03-22T16:51:06.246Z,6.60
2019-03-22T16:53:39.034Z,7.33
2019-03-22T16:56:08.587Z,6.67
2019-03-22T16:58:38.088Z,6.80
2019-03-22T17:01:07.599Z,6.73
2019-03-22T17:03:37.039Z,6.10
2019-03-22T17:06:06.601Z,6.60
2019-03-22T17:08:36.036Z,5.70
2019-03-22T17:11:28.014Z,6.57
2019-03-22T17:13:57.511Z,7.07
2019-03-22T17:16:27.097Z,6.93
2019-03-22T17:18:56.689Z,6.30
2019-03-22T17:21:26.331Z,6.40
2019-03-22T17:23:56.814Z,5.90
2019-03-22T17:26:26.607Z,8.43
2019-03-22T17:28:56.472Z,7.67
2019-03-22T17:31:25.990Z,8.90
2019-03-22T17:33:55.457Z,6.53
2019-03-22T17:36:25.020Z,6.63
2019-03-22T17:38:54.548Z,5.00
2019-03-22T17:41:42.871Z,6.30
2019-03-22T17:44:12.366Z,5.70
2019-03-22T17:46:41.743Z,6.30
2019-03-22T17:49:11.716Z,6.70
2019-03-22T17:51:41.210Z,7.27
2019-03-22T17:54:10.589Z,6.77
2019-03-22T17:56:39.979Z,5.90
2019-03-22T17:59:09.474Z,5.53
2019-03-22T18:01:39.206Z,7.30
2019-03-22T18:04:08.529Z,6.53
2019-03-22T18:06:37.896Z,5.60
2019-03-22T18:09:07.815Z,5.70
2019-03-22T18:11:37.405Z,5.20
2019-03-22T18:14:06.781Z,5.77
2019-03-22T18:16:36.141Z,6.33
2019-03-22T18:19:05.585Z,6.10
2019-03-22T18:21:34.922Z,5.97
2019-03-22T18:24:04.408Z,6.17
2019-03-22T18:26:34.117Z,7.90
2019-03-22T18:29:03.489Z,7.23
2019-03-22T18:31:32.860Z,5.37
2019-03-22T18:34:02.207Z,7.20
2019-03-22T18:36:31.630Z,5.87
2019-03-22T18:39:00.964Z,5.80
2019-03-22T18:41:30.329Z,5.23
2019-03-22T18:43:59.672Z,5.47
2019-03-22T18:46:29.031Z,6.40
2019-03-22T18:48:58.420Z,6.00
2019-03-22T18:51:27.778Z,12.93
2019-03-22T18:53:57.108Z,12.80
2019-03-22T18:56:26.464Z,7.53
2019-03-22T18:58:55.892Z,7.37
2019-03-22T19:01:25.633Z,7.80
2019-03-22T19:03:57.401Z,7.23
2019-03-22T19:06:26.774Z,5.73
2019-03-22T19:08:56.174Z,6.13
2019-03-22T19:11:25.522Z,6.23
2019-03-22T19:13:55.125Z,7.13
2019-03-22T19:16:24.883Z,7.00
2019-03-22T19:18:54.260Z,7.00
2019-03-22T19:21:23.644Z,7.20
2019-03-22T19:23:53.323Z,8.07
2019-03-22T19:26:22.747Z,7.53
2019-03-22T19:28:52.153Z,6.20
2019-03-22T19:31:21.681Z,5.90
2019-03-22T19:33:51.351Z,7.13
2019-03-22T19:36:20.696Z,7.27
2019-03-22T19:38:50.048Z,7.87
2019-03-22T19:41:19.588Z,7.97
2019-03-22T19:43:49.043Z,6.97
2019-03-22T19:46:18.573Z,6.60
2019-03-22T19:48:47.976Z,7.27
2019-03-22T19:51:17.451Z,6.83
2019-03-22T19:53:46.811Z,6.30
2019-03-22T19:56:16.172Z,7.70
2019-03-22T19:58:45.519Z,8.17
2019-03-22T20:01:14.988Z,8.70
2019-03-22T20:03:45.101Z,7.60
2019-03-22T20:06:14.540Z,7.67
2019-03-22T20:08:43.964Z,7.43
2019-03-22T20:11:13.352Z,6.80
2019-03-22T20:13:42.817Z,7.07
2019-03-22T20:16:12.221Z,6.00
2019-03-22T20:18:41.782Z,6.57
2019-03-22T20:21:11.282Z,6.20
2019-03-22T20:23:40.632Z,6.73
2019-03-22T20:26:10.072Z,6.40
2019-03-22T20:28:39.432Z,6.77
2019-03-22T20:31:08.774Z,6.90
2019-03-22T20:33:38.202Z,7.40
2019-03-22T20:36:07.625Z,6.93
2019-03-22T20:38:36.952Z,7.57
2019-03-22T20:41:06.961Z,7.30
2019-03-22T20:43:36.668Z,6.33
2019-03-22T20:46:06.186Z,6.17
2019-03-22T20:48:35.528Z,5.47
2019-03-22T20:51:05.586Z,12.40
2019-03-22T20:53:34.926Z,10.60
2019-03-22T20:56:04.783Z,6.70
2019-03-22T20:58:34.145Z,6.00
2019-03-22T21:01:03.572Z,7.90
2019-03-22T21:03:32.896Z,7.17
2019-03-22T21:06:04.442Z,6.83
2019-03-22T21:08:33.667Z,7.63
2019-03-22T21:11:03.091Z,6.33
2019-03-22T21:13:32.422Z,6.27
2019-03-22T21:16:02.086Z,6.17
2019-03-22T21:18:31.793Z,7.03
2019-03-22T21:21:01.149Z,9.97
2019-03-22T21:23:36.379Z,6.20
2019-03-22T21:26:01.521Z,6.40
2019-03-22T21:28:30.885Z,5.80
2019-03-22T21:31:00.257Z,6.50
2019-03-22T21:33:29.586Z,7.17
2019-03-22T21:35:58.964Z,6.60
2019-03-22T21:38:28.295Z,7.20
2019-03-22T21:40:57.634Z,5.60
2019-03-22T21:43:27.050Z,7.07
2019-03-22T21:45:56.529Z,6.80
2019-03-22T21:48:26.213Z,5.80
2019-03-22T21:50:55.961Z,6.13
2019-03-22T21:53:25.373Z,6.10
2019-03-22T21:55:54.764Z,6.00
2019-03-22T21:58:24.677Z,6.60
2019-03-22T22:00:54.012Z,6.00
2019-03-22T22:03:23.789Z,5.80
2019-03-22T22:05:53.709Z,5.97
2019-03-22T22:08:23.364Z,5.53
2019-03-22T22:10:59.600Z,5.77
2019-03-22T22:13:23.769Z,16.50
2019-03-22T22:15:53.473Z,9.80
2019-03-22T22:18:22.797Z,13.20
2019-03-22T22:20:52.149Z,6.67
2019-03-22T22:23:21.830Z,5.90
2019-03-22T22:25:51.616Z,6.80
2019-03-22T22:28:21.203Z,4.83
2019-03-22T22:30:50.521Z,6.07
2019-03-22T22:33:19.854Z,6.27
2019-03-22T22:35:58.142Z,5.30
2019-03-22T22:38:20.545Z,5.80
2019-03-22T22:40:50.155Z,5.30
2019-03-22T22:43:19.488Z,6.17
2019-03-22T22:45:49.164Z,5.10
2019-03-22T22:48:18.553Z,6.53
2019-03-22T22:50:48.319Z,5.23
2019-03-22T22:53:17.985Z,5.83
2019-03-22T22:55:47.390Z,6.00
2019-03-22T22:58:16.720Z,7.40
2019-03-22T23:00:46.584Z,7.20
2019-03-22T23:03:17.281Z,6.20
2019-03-22T23:05:49.627Z,6.70
2019-03-22T23:08:22.035Z,7.00
2019-03-22T23:10:51.808Z,6.33
2019-03-22T23:13:22.834Z,5.80
2019-03-22T23:15:52.473Z,6.43
2019-03-22T23:18:21.812Z,5.30
2019-03-22T23:20:51.409Z,6.17
2019-03-22T23:23:20.737Z,6.00
2019-03-22T23:25:50.059Z,5.87
2019-03-22T23:28:19.701Z,5.57
2019-03-22T23:30:49.005Z,7.07
2019-03-22T23:33:18.429Z,6.30
2019-03-22T23:35:47.761Z,6.67
2019-03-22T23:38:17.178Z,7.30
2019-03-22T23:40:46.500Z,5.63
2019-03-22T23:43:16.904Z,5.80
2019-03-22T23:45:46.304Z,5.37
2019-03-22T23:48:15.656Z,5.73
2019-03-22T23:50:45.279Z,5.03
2019-03-22T23:53:14.696Z,6.53
2019-03-22T23:55:44.025Z,9.10
2019-03-22T23:58:13.369Z,6.20
